Aeroporto :
LOGIN :

Iscrizione | Disclaimer

   EN    FR    IT 

 










Sommario :    VFR   VFR Marginale   IFR   IFR Intensivo   IFR Molto Intensivo
Visibilità : 
Base nubi : 
>= 8 km
>= 3000ft
5 / 8 km
1000 / 3000 ft
1500m / 5 km
500 / 1000 ft
800 / 1500m
200 / 500 ft
< 800m
< 200 ft
Simboli :   Temporali  Nebbia  Neve Forte  Precipitazioni Forti  Vento > 20 kt
SIGMETs :   Varie  Temporali  Ghiacco  Turbolenza  Onda orograficha  Ceneri Vulcaniche







- Altitudine del aeroporto : 96 ft
- Codice IATA : REG


LICR - Reggio Calabria

ULTIMO METAR :
  • 211050Z 24012KT CAVOK 19/11 Q1020

METARs OBSOLETI :
  • 210950Z 26008KT 210V320 CAVOK 17/11 Q1020
  • 210850Z VRB02KT CAVOK 17/10 Q1020

TAF TAF LICR
Valido dal 21 a 12 ore il 22 a 12 ore UTC


211100Z 2112/2212 19008KT 9999 SCT030
TEMPO 2112/2115 RA
Nessun NOTAM noto per questo aeroporto.
3 SIGMETs conosciuti per la FIR Roma (LIRR) :
 
Temporali affogati
LIRR SIGMET 3 VALID 211140/211340 LIIB
LIRR ROMA FIR EMBD TS FCST WI N3738 E01257 - N3718 E01457 - N3628 E01628 - N3628 E01132 - N3727 E01128 - N3738 E01257 TOP FL300 STNR NC=
Turbolenza severa
LIRR SIGMET 2 VALID 211200/211500 LIIB
LIRR ROMA FIR SEV TURB FCST WI N3824 E01632 - N3732 E01526 - N3634 E01537 - N3628 E01128 - N3749 E01240 - N3804 E01406 - N3825 E01529 - N3908 E01558 - N3824 E01632 FL010/080 STNR NC=
Turbolenza severa
LIRR SIGMET 1 VALID 210905/211200 LIIB
LIRR ROMA FIR SEV TURB FCST WI N3852 E01642 - N3634 E01538 - N3628 E01129 - N3808 E01148 - N3829 E01349 - N3837 E01522 - N3936 E01549 - N3852 E01642 FL010/080 STNR NC=



MetMap, La meteo Aeronautica in un colpo d'occhio ! - Copyright ORBIFLY Dicembre 2007 - Disclaimer

ORBIFLY MET'MAP TEAM :

Programmazione e sviluppo : Alexandra Zaïnal
Concezione e sviluppo : Baudouin d'Aumeries
Co-Programmazione e sviluppo : Marc-Olivier Méhu
Supporto tecnico e logistico : Manuel Goepfert
Aiuto per la traduzione : Arnaldo La Scala

Contatto : metmap@orbifly.com




FONTI E CREDITI :

   NOAA